Terminal Aerodrome Forecast
Issued by NWS Chicago, IL

Home | Current Version | Previous Version | Graphics & Text | Print | Product List | Glossary On
Versions: 1 2 3 4 5 6 7 8 9 10 11 12 13 14 15 16 17 18 19 20 21 22 23 24 25 26 27 28 29 30
000
FTUS43 KLOT 282058 AAA
TAFRFD
TAF AMD
KRFD 282058Z 2821/2918 01008KT P6SM VCTS SCT030CB BKN060
      TEMPO 2821/2823 VRB15G25KT 2SM -TSRA BKN040CB
     FM290100 04008KT P6SM SCT030 BKN050
     FM290800 VRB03KT 3SM BR VCSH BKN015 OVC080
     FM291500 06007KT 6SM -SHRA BR SCT015 OVC050=

USA.gov is the U.S. government's official web portal to all federal, state and local government web resources and services.